Aérodrome :
LOGIN :

S'inscrire | Disclaimer

   EN    FR    IT 

 










Légende :    VFR   VFR Marginal   IFR   IFR Intensif   IFR Très Intensif
Visi : 
Plafond : 
>= 8 km
>= 3000ft
5 à 8 km
1000 à 3000 ft
1500m à 5 km
500 à 1000 ft
800 à 1500m
200 à 500 ft
< 800m
< 200 ft
Symboles :   Orages  Brouillard  Fortes neiges  Fortes précipitations  Vent > 20 kt
SIGMETs :   Divers  Orages  Givrage  Turbulence  Onde Orograph.  Cendres Volcan.






- Altitude de l'aérodrome : 1416 ft
- Code IATA : ZRH


LSZH - Zurich

DERNIER METAR :
  • 190420Z 35003KT CAVOK M01/M02 Q1016 NOSIG

METARs EXPIRÉS :
  • 190350Z VRB01KT CAVOK M01/M02 Q1016 NOSIG
  • 190320Z VRB01KT CAVOK M02/M02 Q1016 NOSIG
  • 190250Z VRB01KT CAVOK M01/M02 Q1016 NOSIG
  • 190220Z VRB01KT CAVOK M01/M02 Q1016 NOSIG
  • 190150Z 12002KT CAVOK M00/M01 Q1016 NOSIG

TAF TAF LSZH
Valide du 19 à 03h jusqu'au 20 à 09h UTC


190225Z 1903/2009 VRB03KT CAVOK TX05/1914Z TNM01/1906Z TN01/2006Z
PROB30 1903/1907 4500 BR NSC
TEMPO 1903/1907 8000 FEW030
BECMG 1907/1911 9999 BKN035
PROB40
TEMPO 1912/1917 04006KT
BECMG 2000/2003 BKN012
PROB30 2000/2009 4500 BR BKN009
ATIS : +41 43 816 2295 (DEP) +41 43 816 2294 (ARR)



MET'MAP, la Météo Aéronautique d'un coup d'oeil ! - Copyright ORBIFLY Décembre 2007 - Disclaimer

ORBIFLY MET'MAP TEAM :

Programmation & Développement : Alexandra Zaïnal
Conception & Développement : Baudouin d'Aumeries
Co-Programmation & Développement : Marc-Olivier Méhu
Soutien technique & logistique : Manuel Goepfert

Contact : metmap@orbifly.com




SOURCES & CREDITS :

   NOAA